Αρχική σελίδα
METAR-TAF:

METAR-TAF

Αεροδρόμια :

Barra do Garças, Μάτο Γκρόσο, Βραζιλία

γεωγραφικό πλάτος: 15-52S, γεωγραφικό μήκος: 052-23W, υψόμετρο: 350 μ

Παρών καιρός

Η αναφορά έγινε 1 ώρα και 2 λεπτά πριν, στις 17:00 UTC
Άνεμος 5 kt από Α/NA
Θερμοκρασία 33°C
Υγρασία 39%
Πίεση 1016 hPa
Ορατότητα 10 χλμ και άνω
Λίγα νέφη σε ύψος 2000 πόδια

METAR: SBBW 121700Z 12005KT 9999 FEW020 33/17 Q1016

Χρόνος: 14:02 (18:02 UTC)

Πρόγνωση Καιρού

Η αναφορά έγινε 10 ώρες και 2 λεπτά πριν, στις 08:00 UTC
Η πρόγνωση ισχύει από τις 12 στις 12 UTC έως τις 12 στις 24 UTC
Άνεμος kt από Β
Ορατότητα 10 χλμ και άνω
Λίγα νέφη σε ύψος 2000 πόδια
Καθιστάμενος
από 12 στις 14 UTC έως τις 12 στις 16 UTC
Άνεμος 7 kt από Α
Καθιστάμενος
από 12 στις 16 UTC έως τις 12 στις 18 UTC
Άνεμος 5 kt από Α/BA

TAF: SBBW 120800Z 1212/1224 00000KT 9999 FEW020 TX33/1218Z TN22/1224Z BECMG 1214/1216 09007KT BECMG 1216/1218 06005KT RMK PHP

Μετεωρολογικές αναφορές και προγνώσεις για περισσότερα από 4000 αεροδρόμια (δελτία METAR και TAF).

Οι διαθέσιμοι σταθμοί απεικονίζονται στο χάρτη με κίτρινες και κόκκινες κουκκίδες.

Μετακινήστε το ποντίκι πάνω από τις κουκκίδες για να δείτε το όνομα του σταθμού.

Στη συνέχεια, κάντε κλικ για να δείτε τις μετεωρολογικές αναφορές και τις προγνώσεις καιρού.

Για να αλλάξετε το χάρτη: κάντε κλικ στα πράσινα κουμπιά με τον μαύρο σταυρό για να ζουμάρετε, στο πράσινο κουμπί με την παύλα για να αφαιρέσετε το ζουμ ή στα πράσινα βέλη για να αντιπαραβάλλετε χάρτες.


METAR-TAF: